createdAt,value
2018-05-01T00:08:52.000Z,48.906
2018-05-01T00:18:52.000Z,48.779
2018-05-01T00:28:52.000Z,48.644
2018-05-01T00:38:52.000Z,48.594
2018-05-01T00:48:52.000Z,48.599
2018-05-01T00:58:52.000Z,48.527
2018-05-01T01:08:52.000Z,48.524
2018-05-01T01:18:52.000Z,48.267
2018-05-01T01:28:53.000Z,48.285
2018-05-01T01:38:52.000Z,48.226
2018-05-01T01:48:52.000Z,48.145
2018-05-01T01:58:52.000Z,48.193
2018-05-01T02:08:52.000Z,48.167
2018-05-01T02:18:52.000Z,48.034
2018-05-01T02:28:52.000Z,47.954
2018-05-01T02:38:52.000Z,48.07
2018-05-01T02:48:52.000Z,47.774
2018-05-01T02:58:52.000Z,47.899
2018-05-01T03:08:52.000Z,47.767
2018-05-01T03:18:52.000Z,47.742
2018-05-01T03:28:52.000Z,47.725
2018-05-01T03:38:52.000Z,47.681
2018-05-01T03:48:52.000Z,47.504
2018-05-01T03:58:52.000Z,47.588
2018-05-01T04:08:52.000Z,47.531
2018-05-01T04:18:52.000Z,47.549
2018-05-01T04:28:52.000Z,47.428
2018-05-01T04:38:52.000Z,47.426
2018-05-01T04:48:52.000Z,47.336
2018-05-01T04:58:52.000Z,47.215
2018-05-01T05:08:52.000Z,47.31
2018-05-01T05:18:52.000Z,47.135
2018-05-01T05:28:52.000Z,47.079
2018-05-01T05:38:52.000Z,46.719
2018-05-01T05:48:52.000Z,46.588
2018-05-01T05:58:52.000Z,46.5
2018-05-01T06:08:53.000Z,46.617
2018-05-01T06:18:52.000Z,46.529
2018-05-01T06:28:52.000Z,46.343
2018-05-01T06:38:53.000Z,46.29
2018-05-01T06:48:53.000Z,46.2
2018-05-01T06:58:53.000Z,46.039
2018-05-01T07:08:53.000Z,45.906
2018-05-01T07:18:53.000Z,45.82
2018-05-01T07:28:53.000Z,45.993
2018-05-01T07:38:53.000Z,45.712
2018-05-01T07:48:53.000Z,45.869
2018-05-01T07:58:53.000Z,46.222
2018-05-01T08:08:53.000Z,46.353
2018-05-01T08:18:53.000Z,46.388
2018-05-01T08:28:53.000Z,46.38
2018-05-01T08:48:53.000Z,46.57
2018-05-01T08:58:53.000Z,46.566
2018-05-01T09:08:53.000Z,46.521
2018-05-01T09:18:53.000Z,46.781
2018-05-01T09:28:53.000Z,46.934
2018-05-01T09:38:53.000Z,47.005
2018-05-01T09:48:53.000Z,46.961
2018-05-01T09:58:53.000Z,46.939
2018-05-01T10:08:53.000Z,46.914
2018-05-01T10:18:53.000Z,47.111
2018-05-01T10:28:53.000Z,46.949
2018-05-01T10:38:53.000Z,46.666
2018-05-01T10:48:53.000Z,46.468
2018-05-01T10:58:53.000Z,46.535
2018-05-01T11:08:53.000Z,46.663
2018-05-01T11:18:53.000Z,46.795
2018-05-01T11:28:53.000Z,46.383
2018-05-01T11:38:53.000Z,46.316
2018-05-01T11:48:53.000Z,46.185
2018-05-01T11:58:55.000Z,46.099
2018-05-01T12:08:53.000Z,45.918
2018-05-01T12:18:53.000Z,46.06
2018-05-01T12:28:53.000Z,46.157
2018-05-01T12:38:53.000Z,45.735
2018-05-01T12:48:53.000Z,45.73
2018-05-01T12:58:53.000Z,45.921
2018-05-01T13:08:53.000Z,45.933
2018-05-01T13:18:53.000Z,45.827
2018-05-01T13:28:53.000Z,45.79
2018-05-01T13:38:53.000Z,45.909
2018-05-01T13:48:53.000Z,45.957
2018-05-01T13:58:53.000Z,45.858
2018-05-01T14:08:53.000Z,45.923
2018-05-01T14:18:53.000Z,46.031
2018-05-01T14:28:53.000Z,46.075
2018-05-01T14:38:53.000Z,46.215
2018-05-01T14:48:54.000Z,46.14
2018-05-01T14:58:53.000Z,46.173
2018-05-01T15:08:54.000Z,46.421
2018-05-01T15:18:54.000Z,46.369
2018-05-01T15:28:54.000Z,46.516
2018-05-01T15:38:54.000Z,46.583
2018-05-01T15:48:54.000Z,46.719
2018-05-01T15:58:54.000Z,46.774
2018-05-01T16:08:54.000Z,46.84
2018-05-01T16:18:54.000Z,46.719
2018-05-01T16:28:54.000Z,47.099
2018-05-01T16:38:54.000Z,46.806
2018-05-01T16:48:54.000Z,46.825
2018-05-01T16:58:54.000Z,46.876
2018-05-01T17:08:54.000Z,47.146
2018-05-01T17:18:54.000Z,47.293
2018-05-01T17:28:54.000Z,48.907
2018-05-01T17:38:54.000Z,49.669
2018-05-01T17:48:54.000Z,50.146
2018-05-01T17:58:54.000Z,50.241
2018-05-01T18:08:55.000Z,50.348
2018-05-01T18:18:54.000Z,50.488
2018-05-01T18:28:55.000Z,50.767
2018-05-01T18:38:54.000Z,50.829
2018-05-01T18:48:54.000Z,50.934
2018-05-01T18:58:54.000Z,50.987
2018-05-01T19:08:58.000Z,51.287
2018-05-01T19:18:54.000Z,51.085
2018-05-01T19:28:55.000Z,51.311
2018-05-01T19:38:54.000Z,51.34
2018-05-01T19:48:54.000Z,51.077
2018-05-01T19:58:54.000Z,51.157
2018-05-01T20:08:54.000Z,51.912
2018-05-01T20:18:54.000Z,53.16
2018-05-01T20:28:54.000Z,53.041
2018-05-01T20:38:54.000Z,53.664
2018-05-01T20:48:54.000Z,53.672
2018-05-01T20:58:54.000Z,53.214
2018-05-01T21:08:54.000Z,52.932
2018-05-01T21:18:54.000Z,53.025
2018-05-01T21:28:54.000Z,52.898
2018-05-01T21:38:54.000Z,52.889
2018-05-01T21:48:54.000Z,52.86
2018-05-01T21:58:54.000Z,52.768
2018-05-01T22:08:54.000Z,52.846
2018-05-01T22:18:54.000Z,52.979
2018-05-01T22:28:54.000Z,52.812
2018-05-01T22:38:54.000Z,52.804
2018-05-01T22:58:54.000Z,52.824
2018-05-01T23:08:54.000Z,52.785
2018-05-01T23:18:54.000Z,52.684
2018-05-01T23:28:54.000Z,52.658
2018-05-01T23:38:54.000Z,52.717
2018-05-01T23:58:55.000Z,52.685
